createdAt,value
2017-07-19T00:01:23.521Z,61.68
2017-07-19T00:03:50.934Z,61.22
2017-07-19T00:06:18.542Z,61.99
2017-07-19T00:08:45.966Z,61.49
2017-07-19T00:11:13.390Z,62.04
2017-07-19T00:13:40.926Z,61.91
2017-07-19T00:16:08.359Z,61.73
2017-07-19T00:18:35.774Z,61.99
2017-07-19T00:21:03.427Z,61.77
2017-07-19T00:23:30.855Z,61.77
2017-07-19T00:25:58.282Z,62.22
2017-07-19T00:28:25.812Z,63.61
2017-07-19T00:30:53.225Z,64.23
2017-07-19T00:33:20.642Z,63.72
2017-07-19T00:35:48.106Z,63.10
2017-07-19T00:38:15.536Z,63.61
2017-07-19T00:40:42.958Z,62.79
2017-07-19T00:43:10.506Z,63.12
2017-07-19T00:45:37.923Z,62.92
2017-07-19T00:48:05.340Z,63.29
2017-07-19T00:50:33.116Z,64.38
2017-07-19T00:53:00.546Z,63.25
2017-07-19T00:55:27.971Z,63.54
2017-07-19T00:57:55.539Z,63.67
2017-07-19T01:00:22.950Z,63.26
2017-07-19T01:02:50.371Z,64.28
2017-07-19T01:05:18.282Z,64.09
2017-07-19T01:07:45.710Z,64.56
2017-07-19T01:10:13.137Z,65.87
2017-07-19T01:12:40.842Z,64.65
2017-07-19T01:15:08.254Z,64.07
2017-07-19T01:17:35.671Z,64.17
2017-07-19T01:20:03.114Z,64.22
2017-07-19T01:22:30.538Z,64.11
2017-07-19T01:24:57.949Z,64.24
2017-07-19T01:27:25.491Z,63.95
2017-07-19T01:29:52.912Z,63.98
2017-07-19T01:32:20.326Z,64.74
2017-07-19T01:34:47.854Z,64.37
2017-07-19T01:37:15.274Z,64.34
2017-07-19T01:39:42.691Z,64.94
2017-07-19T01:42:10.121Z,64.67
2017-07-19T01:44:37.551Z,64.71
2017-07-19T01:47:04.977Z,64.86
2017-07-19T01:49:32.509Z,65.71
2017-07-19T01:51:59.928Z,64.54
2017-07-19T01:54:27.356Z,65.71
2017-07-19T01:56:55.139Z,65.81
2017-07-19T01:59:22.565Z,65.20
2017-07-19T02:01:49.978Z,65.03
2017-07-19T02:04:17.418Z,65.58
2017-07-19T02:06:44.846Z,65.19
2017-07-19T02:09:12.262Z,65.47
2017-07-19T02:11:39.798Z,65.63
2017-07-19T02:14:07.227Z,66.91
2017-07-19T02:16:34.646Z,66.18
2017-07-19T02:19:02.174Z,67.12
2017-07-19T02:21:29.587Z,66.60
2017-07-19T02:23:57.003Z,66.47
2017-07-19T02:26:24.575Z,67.38
2017-07-19T02:28:51.991Z,67.51
2017-07-19T02:31:19.407Z,67.35
2017-07-19T02:33:46.839Z,67.13
2017-07-19T02:36:14.254Z,67.61
2017-07-19T02:38:41.666Z,67.80
2017-07-19T02:41:09.100Z,67.59
2017-07-19T02:43:36.515Z,68.42
2017-07-19T02:46:03.931Z,67.61
2017-07-19T02:48:31.366Z,68.12
2017-07-19T02:50:58.786Z,67.97
2017-07-19T02:53:26.198Z,68.37
2017-07-19T02:55:53.634Z,67.80
2017-07-19T02:58:21.058Z,67.13
2017-07-19T03:00:48.486Z,68.74
2017-07-19T03:03:16.059Z,67.80
2017-07-19T03:05:43.475Z,68.52
2017-07-19T03:08:10.890Z,67.77
2017-07-19T03:10:38.326Z,68.14
2017-07-19T03:13:05.737Z,67.86
2017-07-19T03:15:33.151Z,67.81
2017-07-19T03:18:00.884Z,67.83
2017-07-19T03:20:28.299Z,68.06
2017-07-19T03:22:55.718Z,68.54
2017-07-19T03:25:23.305Z,68.20
2017-07-19T03:27:50.722Z,67.99
2017-07-19T03:30:18.143Z,69.14
2017-07-19T03:32:45.822Z,68.72
2017-07-19T03:35:13.250Z,68.73
2017-07-19T03:37:40.666Z,68.75
2017-07-19T03:40:08.093Z,69.29
2017-07-19T03:42:35.510Z,68.83
2017-07-19T03:45:02.930Z,68.94
2017-07-19T03:47:30.507Z,69.08
2017-07-19T03:49:57.913Z,68.43
2017-07-19T03:52:25.340Z,68.69
2017-07-19T03:54:52.770Z,69.31
2017-07-19T03:57:20.189Z,68.86
2017-07-19T03:59:47.608Z,68.61
2017-07-19T04:02:15.082Z,69.16
2017-07-19T04:04:42.497Z,68.89
2017-07-19T04:07:09.910Z,68.87
2017-07-19T04:09:37.342Z,68.42
2017-07-19T04:12:04.771Z,69.07
2017-07-19T04:14:33.001Z,68.76
2017-07-19T04:17:00.538Z,68.72
2017-07-19T04:19:27.981Z,68.58
2017-07-19T04:21:55.390Z,67.92
2017-07-19T04:24:22.971Z,67.56
2017-07-19T04:26:50.391Z,67.60
2017-07-19T04:29:17.807Z,67.62
2017-07-19T04:31:45.285Z,67.64
2017-07-19T04:34:12.707Z,67.66
2017-07-19T04:36:40.119Z,66.94
2017-07-19T04:39:07.715Z,67.09
2017-07-19T04:41:35.135Z,68.02
2017-07-19T04:44:02.558Z,67.72
2017-07-19T04:46:30.126Z,67.52
2017-07-19T04:48:57.538Z,67.47
2017-07-19T04:51:24.955Z,67.29
2017-07-19T04:53:52.474Z,67.11
2017-07-19T04:56:19.899Z,66.75
2017-07-19T04:58:47.543Z,65.73
2017-07-19T05:01:19.729Z,66.51
2017-07-19T05:03:47.590Z,67.14
2017-07-19T05:06:15.358Z,68.82
2017-07-19T05:08:44.351Z,68.05
2017-07-19T05:11:13.335Z,66.33
2017-07-19T05:13:40.823Z,66.85
2017-07-19T05:16:09.089Z,65.63
2017-07-19T05:18:37.395Z,65.11
2017-07-19T05:21:04.870Z,65.09
2017-07-19T05:23:32.396Z,64.31
2017-07-19T05:25:59.894Z,63.91
2017-07-19T05:28:27.335Z,64.97
2017-07-19T05:30:54.952Z,65.20
2017-07-19T05:33:22.368Z,64.79
2017-07-19T05:35:49.786Z,65.13
2017-07-19T05:38:18.374Z,64.71
2017-07-19T05:40:45.805Z,64.22
2017-07-19T05:43:13.265Z,64.49
2017-07-19T05:45:40.855Z,65.45
2017-07-19T05:48:08.305Z,64.92
2017-07-19T05:50:35.741Z,63.70
2017-07-19T05:53:03.782Z,64.99
2017-07-19T05:55:31.771Z,65.03
2017-07-19T05:57:59.295Z,64.76
2017-07-19T06:00:28.926Z,65.40
2017-07-19T06:02:57.669Z,65.16
2017-07-19T06:05:25.121Z,65.27
2017-07-19T06:07:54.445Z,64.68
2017-07-19T06:10:24.390Z,64.26
2017-07-19T06:12:51.826Z,64.06
2017-07-19T06:15:19.298Z,63.97
2017-07-19T06:17:46.758Z,64.40
2017-07-19T06:20:14.190Z,62.57
2017-07-19T06:22:41.726Z,64.08
2017-07-19T06:25:09.178Z,63.72
2017-07-19T06:27:36.622Z,63.99
2017-07-19T06:30:04.206Z,62.94
2017-07-19T06:32:31.703Z,63.66
2017-07-19T06:34:59.138Z,62.89
2017-07-19T06:37:26.623Z,63.81
2017-07-19T06:39:54.029Z,62.13
2017-07-19T06:42:21.435Z,61.92
2017-07-19T06:44:49.018Z,63.77
2017-07-19T06:47:16.446Z,63.71
2017-07-19T06:49:43.891Z,63.43
2017-07-19T06:52:13.845Z,62.80
2017-07-19T06:54:41.276Z,61.30
2017-07-19T06:57:08.692Z,62.62
2017-07-19T06:59:36.135Z,61.49
2017-07-19T07:02:03.544Z,63.04
2017-07-19T07:04:30.959Z,62.05
2017-07-19T07:06:58.701Z,61.56
2017-07-19T07:09:26.925Z,62.06
2017-07-19T07:11:54.354Z,62.72
2017-07-19T07:14:21.915Z,63.13
2017-07-19T07:16:49.351Z,61.35
2017-07-19T07:19:17.726Z,61.06
2017-07-19T07:21:45.670Z,61.00
2017-07-19T07:24:13.366Z,61.02
2017-07-19T07:26:40.796Z,60.52
2017-07-19T07:29:08.388Z,61.48
2017-07-19T07:31:36.602Z,59.38
2017-07-19T07:34:05.200Z,60.32
2017-07-19T07:36:33.073Z,60.57
2017-07-19T07:39:01.044Z,61.61
2017-07-19T07:41:29.059Z,58.65
2017-07-19T07:43:57.398Z,59.97
2017-07-19T07:46:25.695Z,60.97
2017-07-19T07:48:53.230Z,58.66
2017-07-19T07:51:20.874Z,59.21
2017-07-19T07:53:49.139Z,57.61
2017-07-19T07:56:16.558Z,57.92
2017-07-19T07:58:44.286Z,57.36
2017-07-19T08:01:11.780Z,59.04
2017-07-19T08:03:39.198Z,57.15
2017-07-19T08:06:07.074Z,57.77
2017-07-19T08:08:34.512Z,56.61
2017-07-19T08:11:01.913Z,57.23
2017-07-19T08:13:29.650Z,59.93
2017-07-19T08:15:57.078Z,58.22
2017-07-19T08:18:24.490Z,55.89
2017-07-19T08:20:52.058Z,55.37
2017-07-19T08:23:19.482Z,55.85
2017-07-19T08:25:46.905Z,53.82
2017-07-19T08:28:14.342Z,54.75
2017-07-19T08:30:41.758Z,56.12
2017-07-19T08:33:09.171Z,55.45
2017-07-19T08:35:36.596Z,56.28
2017-07-19T08:38:04.016Z,54.34
2017-07-19T08:40:31.430Z,56.40
2017-07-19T08:42:58.959Z,54.44
2017-07-19T08:45:26.369Z,54.83
2017-07-19T08:47:53.795Z,53.33
2017-07-19T08:50:21.271Z,52.86
2017-07-19T08:52:48.679Z,55.52
2017-07-19T08:55:16.416Z,53.48
2017-07-19T08:57:44.006Z,53.05
2017-07-19T09:00:11.426Z,51.41
2017-07-19T09:02:38.850Z,51.69
2017-07-19T09:05:06.427Z,53.86
2017-07-19T09:07:33.865Z,50.84
2017-07-19T09:10:01.279Z,52.49
2017-07-19T09:12:28.738Z,50.21
2017-07-19T09:14:56.152Z,52.00
2017-07-19T09:17:23.578Z,51.48
2017-07-19T09:19:51.031Z,49.41
2017-07-19T09:22:18.442Z,50.84
2017-07-19T09:24:45.865Z,46.80
2017-07-19T09:27:13.871Z,48.44
2017-07-19T09:29:41.282Z,44.27
2017-07-19T09:32:08.703Z,43.52
2017-07-19T09:34:36.223Z,47.53
2017-07-19T09:37:03.637Z,46.49
2017-07-19T09:39:31.046Z,45.43
2017-07-19T09:41:58.806Z,45.31
2017-07-19T09:44:26.231Z,42.71
2017-07-19T09:46:53.638Z,45.51
2017-07-19T09:49:21.215Z,44.67
2017-07-19T09:51:48.634Z,43.25
2017-07-19T09:54:16.067Z,39.73
2017-07-19T09:56:43.614Z,42.51
2017-07-19T09:59:11.027Z,39.82
2017-07-19T10:01:38.439Z,38.18
2017-07-19T10:04:05.886Z,42.27
2017-07-19T10:06:33.320Z,40.74
2017-07-19T10:09:00.786Z,37.69
2017-07-19T10:11:28.215Z,38.73
2017-07-19T10:13:55.627Z,37.50
2017-07-19T10:16:23.046Z,37.03
2017-07-19T10:18:50.618Z,39.71
2017-07-19T10:21:18.032Z,37.11
2017-07-19T10:23:45.437Z,39.34
2017-07-19T10:26:13.170Z,39.17
2017-07-19T10:28:40.586Z,39.44
2017-07-19T10:31:08.013Z,33.77
2017-07-19T10:33:35.446Z,37.61
2017-07-19T10:36:02.862Z,35.85
2017-07-19T10:38:30.282Z,34.04
2017-07-19T10:40:57.855Z,35.71
2017-07-19T10:43:25.268Z,36.63
2017-07-19T10:45:52.673Z,37.23
2017-07-19T10:48:20.102Z,38.18
2017-07-19T10:50:47.514Z,35.94
2017-07-19T10:53:14.939Z,36.04
2017-07-19T10:55:42.368Z,35.63
2017-07-19T10:58:09.781Z,32.15
2017-07-19T11:00:37.198Z,35.16
2017-07-19T11:03:04.768Z,35.32
2017-07-19T11:05:32.195Z,34.70
2017-07-19T11:07:59.610Z,34.04
2017-07-19T11:10:27.038Z,36.41
2017-07-19T11:12:54.455Z,35.33
2017-07-19T11:15:21.874Z,36.03
2017-07-19T11:17:49.575Z,33.28
2017-07-19T11:20:16.994Z,34.60
2017-07-19T11:22:44.402Z,35.33
2017-07-19T11:25:12.156Z,33.06
2017-07-19T11:27:39.570Z,34.21
2017-07-19T11:30:06.999Z,34.50
2017-07-19T11:32:34.522Z,35.88
2017-07-19T11:35:01.938Z,36.29
2017-07-19T11:37:29.361Z,34.92
2017-07-19T11:39:56.934Z,36.42
2017-07-19T11:42:24.346Z,37.79
2017-07-19T11:44:51.784Z,36.23
2017-07-19T11:47:19.366Z,33.01
2017-07-19T11:49:46.786Z,35.28
2017-07-19T11:52:14.194Z,33.49
2017-07-19T11:54:42.542Z,34.76
2017-07-19T11:57:09.960Z,31.43
2017-07-19T11:59:37.401Z,31.86
2017-07-19T12:02:05.046Z,32.49
2017-07-19T12:04:32.463Z,35.58
2017-07-19T12:06:59.874Z,35.47
2017-07-19T12:09:27.709Z,30.70
2017-07-19T12:11:56.094Z,36.25
2017-07-19T12:14:23.515Z,31.61
2017-07-19T12:16:51.145Z,33.29
2017-07-19T12:19:18.557Z,33.38
2017-07-19T12:21:45.964Z,36.21
2017-07-19T12:24:13.538Z,34.49
2017-07-19T12:26:40.954Z,34.25
2017-07-19T12:29:08.386Z,34.48
2017-07-19T12:31:36.167Z,33.40
2017-07-19T12:34:03.594Z,36.80
2017-07-19T12:36:31.006Z,35.30
2017-07-19T12:38:58.717Z,35.93
2017-07-19T12:41:26.147Z,35.81
2017-07-19T12:43:53.919Z,37.77
2017-07-19T12:46:21.526Z,35.03
2017-07-19T12:48:56.691Z,38.44
2017-07-19T12:51:24.259Z,36.67
2017-07-19T12:53:51.678Z,34.36
2017-07-19T12:56:19.089Z,34.22
2017-07-19T12:58:46.622Z,38.31
2017-07-19T13:01:14.035Z,35.72
2017-07-19T13:03:41.441Z,36.38
2017-07-19T13:06:09.023Z,36.32
2017-07-19T13:08:36.438Z,35.09
2017-07-19T13:11:03.839Z,38.42
2017-07-19T13:13:31.268Z,39.29
2017-07-19T13:15:58.695Z,38.18
2017-07-19T13:18:26.114Z,37.52
2017-07-19T13:20:53.706Z,37.85
2017-07-19T13:23:21.131Z,39.20
2017-07-19T13:25:48.541Z,43.98
2017-07-19T13:28:16.487Z,42.43
2017-07-19T13:30:43.902Z,42.81
2017-07-19T13:33:11.335Z,43.00
2017-07-19T13:35:38.906Z,47.27
2017-07-19T13:38:06.319Z,49.51
2017-07-19T13:40:33.734Z,50.95
2017-07-19T13:43:01.202Z,48.03
2017-07-19T13:45:28.629Z,51.60
2017-07-19T13:47:56.048Z,51.77
2017-07-19T13:50:23.570Z,55.17
2017-07-19T13:52:50.990Z,55.72
2017-07-19T13:55:18.407Z,58.16
2017-07-19T13:57:45.979Z,60.48
2017-07-19T14:00:13.386Z,66.88
2017-07-19T14:02:40.806Z,73.26
2017-07-19T14:05:09.271Z,79.12
2017-07-19T14:07:39.046Z,82.34
2017-07-19T14:10:06.476Z,84.15
2017-07-19T14:12:33.913Z,84.88
2017-07-19T14:15:01.339Z,85.68
2017-07-19T14:17:28.770Z,86.06
2017-07-19T14:19:56.586Z,85.73
2017-07-19T14:22:24.011Z,87.66
2017-07-19T14:24:51.432Z,88.01
2017-07-19T14:27:18.876Z,88.84
2017-07-19T14:29:46.303Z,89.95
2017-07-19T14:32:13.728Z,89.82
2017-07-19T14:34:41.252Z,91.90
2017-07-19T14:37:08.693Z,92.77
2017-07-19T14:39:36.123Z,93.25
2017-07-19T14:42:03.702Z,93.89
2017-07-19T14:44:31.129Z,93.73
2017-07-19T14:46:58.543Z,93.59
2017-07-19T14:49:26.014Z,94.25
2017-07-19T14:51:53.451Z,93.50
2017-07-19T14:54:20.876Z,93.99
2017-07-19T14:56:48.319Z,93.78
2017-07-19T14:59:15.744Z,92.61
2017-07-19T15:01:43.154Z,91.84
2017-07-19T15:04:10.596Z,93.14
2017-07-19T15:06:38.228Z,93.19
2017-07-19T15:09:05.638Z,93.57
2017-07-19T15:11:33.206Z,93.56
2017-07-19T15:14:00.626Z,94.16
2017-07-19T15:16:28.059Z,92.93
2017-07-19T15:18:55.773Z,92.70
2017-07-19T15:21:23.188Z,93.14
2017-07-19T15:23:50.617Z,93.40
2017-07-19T15:26:18.066Z,92.82
2017-07-19T15:28:45.482Z,90.27
2017-07-19T15:31:12.901Z,90.23
2017-07-19T15:33:40.326Z,89.49
2017-07-19T15:36:07.755Z,89.73
2017-07-19T15:38:35.166Z,88.98
2017-07-19T15:41:02.649Z,89.45
2017-07-19T15:43:30.119Z,87.11
2017-07-19T15:45:57.547Z,90.05
2017-07-19T15:48:25.259Z,90.48
2017-07-19T15:50:52.671Z,89.78
2017-07-19T15:53:20.089Z,88.20
2017-07-19T15:55:47.668Z,88.28
2017-07-19T15:58:15.125Z,88.60
2017-07-19T16:00:42.530Z,87.83
2017-07-19T16:03:10.151Z,90.14
2017-07-19T16:05:37.566Z,90.07
2017-07-19T16:08:05.011Z,90.25
2017-07-19T16:10:32.482Z,90.36
2017-07-19T16:12:59.937Z,91.02
2017-07-19T16:15:27.363Z,90.67
2017-07-19T16:17:55.135Z,90.22
2017-07-19T16:20:22.554Z,88.37
2017-07-19T16:22:49.962Z,89.96
2017-07-19T16:25:17.538Z,88.85
2017-07-19T16:27:44.944Z,88.31
2017-07-19T16:30:12.375Z,89.27
2017-07-19T16:32:44.207Z,89.55
2017-07-19T16:35:11.631Z,89.72
2017-07-19T16:37:39.066Z,88.65
2017-07-19T16:40:06.631Z,89.86
2017-07-19T16:42:34.092Z,88.24
2017-07-19T16:45:01.499Z,88.43
2017-07-19T16:47:28.947Z,86.54
2017-07-19T16:49:56.426Z,87.96
2017-07-19T16:52:23.854Z,88.82
2017-07-19T16:54:51.327Z,88.77
2017-07-19T16:57:18.737Z,86.11
2017-07-19T16:59:46.208Z,85.25
2017-07-19T17:02:13.691Z,85.72
2017-07-19T17:04:41.124Z,84.55
2017-07-19T17:07:08.605Z,85.37
2017-07-19T17:09:36.511Z,85.67
2017-07-19T17:12:04.216Z,85.39
2017-07-19T17:14:31.697Z,86.53
2017-07-19T17:17:00.311Z,86.10
2017-07-19T17:19:27.758Z,86.49
2017-07-19T17:21:55.180Z,86.50
2017-07-19T17:24:22.755Z,86.72
2017-07-19T17:26:50.202Z,86.30
2017-07-19T17:29:17.628Z,86.52
2017-07-19T17:31:45.233Z,86.60
2017-07-19T17:34:12.658Z,86.61
2017-07-19T17:36:40.118Z,85.23
2017-07-19T17:39:07.880Z,84.79
2017-07-19T17:41:35.346Z,84.11
2017-07-19T17:44:02.762Z,84.69
2017-07-19T17:46:30.493Z,85.87
2017-07-19T17:48:57.931Z,86.25
2017-07-19T17:51:25.367Z,86.32
2017-07-19T17:53:52.832Z,86.57
2017-07-19T17:56:20.275Z,86.68
2017-07-19T17:58:47.809Z,85.74
2017-07-19T18:01:15.333Z,86.47
2017-07-19T18:03:42.880Z,86.97
2017-07-19T18:06:10.368Z,85.98
2017-07-19T18:08:37.968Z,86.60
2017-07-19T18:11:05.443Z,86.36
2017-07-19T18:13:32.867Z,86.05
2017-07-19T18:16:00.403Z,86.63
2017-07-19T18:18:29.276Z,86.65
2017-07-19T18:20:56.694Z,86.08
2017-07-19T18:23:24.227Z,86.22
2017-07-19T18:25:51.670Z,86.12
2017-07-19T18:28:19.086Z,86.48
2017-07-19T18:30:46.745Z,86.62
2017-07-19T18:33:14.171Z,85.65
2017-07-19T18:35:41.957Z,85.40
2017-07-19T18:38:09.421Z,85.87
2017-07-19T18:40:36.848Z,86.13
2017-07-19T18:43:04.303Z,86.16
2017-07-19T18:45:31.843Z,86.48
2017-07-19T18:47:59.258Z,86.88
2017-07-19T18:50:26.679Z,86.89
2017-07-19T18:52:54.202Z,86.84
2017-07-19T18:55:21.631Z,87.08
2017-07-19T18:57:49.087Z,86.43
2017-07-19T19:00:16.689Z,86.85
2017-07-19T19:02:44.093Z,87.07
2017-07-19T19:05:11.550Z,87.47
2017-07-19T19:07:39.334Z,86.78
2017-07-19T19:10:06.751Z,86.90
2017-07-19T19:12:34.185Z,87.02
2017-07-19T19:15:01.710Z,87.12
2017-07-19T19:17:29.173Z,86.98
2017-07-19T19:19:56.578Z,87.34
2017-07-19T19:22:24.069Z,87.66
2017-07-19T19:24:51.500Z,87.79
2017-07-19T19:27:18.931Z,87.81
2017-07-19T19:29:46.902Z,88.08
2017-07-19T19:32:14.355Z,88.19
2017-07-19T19:34:41.774Z,88.29
2017-07-19T19:37:09.407Z,88.44
2017-07-19T19:39:36.831Z,88.52
2017-07-19T19:42:05.218Z,88.54
2017-07-19T19:44:32.882Z,88.64
2017-07-19T19:47:00.296Z,88.71
2017-07-19T19:49:28.614Z,88.85
2017-07-19T19:51:56.510Z,89.05
2017-07-19T19:54:24.827Z,89.05
2017-07-19T19:56:52.287Z,89.08
2017-07-19T19:59:19.827Z,89.31
2017-07-19T20:01:47.250Z,89.36
2017-07-19T20:04:14.693Z,89.51
2017-07-19T20:06:42.438Z,89.61
2017-07-19T20:09:09.851Z,89.67
2017-07-19T20:11:37.274Z,89.69
2017-07-19T20:14:04.879Z,89.74
2017-07-19T20:16:32.322Z,89.82
2017-07-19T20:18:59.740Z,89.94
2017-07-19T20:21:27.337Z,89.88
2017-07-19T20:23:54.756Z,89.97
2017-07-19T20:26:22.196Z,90.05
2017-07-19T20:28:49.932Z,90.16
2017-07-19T20:31:17.358Z,90.09
2017-07-19T20:33:44.781Z,90.12
2017-07-19T20:36:12.528Z,90.15
2017-07-19T20:38:39.974Z,90.06
2017-07-19T20:41:07.394Z,89.98
2017-07-19T20:43:34.834Z,89.91
2017-07-19T20:46:02.286Z,89.86
2017-07-19T20:48:29.695Z,89.86
2017-07-19T20:50:57.230Z,89.83
2017-07-19T20:53:24.646Z,89.90
2017-07-19T20:55:52.058Z,89.97
2017-07-19T20:58:19.680Z,89.88
2017-07-19T21:00:47.083Z,90.03
2017-07-19T21:03:14.514Z,90.17
2017-07-19T21:05:42.091Z,90.37
2017-07-19T21:08:13.045Z,90.46
2017-07-19T21:10:40.449Z,90.75
2017-07-19T21:13:08.057Z,90.77
2017-07-19T21:15:35.479Z,90.76
2017-07-19T21:18:02.901Z,90.75
2017-07-19T21:20:30.373Z,90.81
2017-07-19T21:22:57.786Z,90.86
2017-07-19T21:25:25.210Z,90.91
2017-07-19T21:27:52.794Z,90.99
2017-07-19T21:30:20.224Z,90.92
2017-07-19T21:32:47.634Z,90.83
2017-07-19T21:35:15.467Z,90.65
2017-07-19T21:37:42.886Z,90.67
2017-07-19T21:40:10.298Z,90.55
2017-07-19T21:42:37.967Z,90.66
2017-07-19T21:45:05.386Z,90.64
2017-07-19T21:47:32.805Z,90.34
2017-07-19T21:50:00.266Z,90.32
2017-07-19T21:52:27.690Z,90.30
2017-07-19T21:54:55.119Z,90.39
2017-07-19T21:57:22.714Z,90.21
2017-07-19T21:59:50.138Z,90.07
2017-07-19T22:02:17.551Z,90.20
2017-07-19T22:04:45.091Z,90.26
2017-07-19T22:07:12.513Z,90.39
2017-07-19T22:09:39.930Z,90.37
2017-07-19T22:12:07.399Z,90.32
2017-07-19T22:14:34.820Z,90.36
2017-07-19T22:17:02.236Z,90.14
2017-07-19T22:19:29.954Z,90.05
2017-07-19T22:21:57.377Z,90.09
2017-07-19T22:24:24.797Z,90.21
2017-07-19T22:26:52.630Z,90.10
2017-07-19T22:29:20.033Z,89.96
2017-07-19T22:31:47.439Z,89.96
2017-07-19T22:34:14.918Z,89.96
2017-07-19T22:36:42.335Z,89.49
2017-07-19T22:39:09.767Z,89.21
2017-07-19T22:41:37.205Z,89.46
2017-07-19T22:44:04.642Z,89.07
2017-07-19T22:46:32.067Z,89.07
2017-07-19T22:48:59.552Z,89.20
2017-07-19T22:51:26.974Z,89.16
2017-07-19T22:53:54.426Z,89.11
2017-07-19T22:56:22.318Z,89.22
2017-07-19T22:58:49.763Z,88.11
2017-07-19T23:01:17.178Z,88.29
2017-07-19T23:03:44.893Z,88.58
2017-07-19T23:06:12.306Z,88.18
2017-07-19T23:08:39.727Z,88.42
2017-07-19T23:11:07.308Z,88.44
2017-07-19T23:13:34.726Z,88.27
2017-07-19T23:16:02.138Z,88.46
2017-07-19T23:18:29.618Z,87.66
2017-07-19T23:20:57.028Z,88.00
2017-07-19T23:23:24.463Z,87.85
2017-07-19T23:25:51.902Z,88.10
2017-07-19T23:28:19.318Z,88.15
2017-07-19T23:30:46.736Z,88.30
2017-07-19T23:33:14.552Z,88.34
2017-07-19T23:35:41.968Z,88.46
2017-07-19T23:38:09.383Z,88.63
2017-07-19T23:40:36.892Z,88.53
2017-07-19T23:43:04.301Z,88.61
2017-07-19T23:45:31.726Z,88.74
2017-07-19T23:47:59.300Z,88.79
2017-07-19T23:50:26.726Z,88.75
2017-07-19T23:52:54.158Z,88.43
2017-07-19T23:55:22.099Z,88.12
2017-07-19T23:57:49.507Z,88.15
